sensor_id;sensor_type;location;lat;lon;timestamp;temperature;humidity
33105;DHT22;19476;51.448;6.674;2023-05-06T00:01:09;18.80;55.00
33105;DHT22;19476;51.448;6.674;2023-05-06T00:03:35;18.80;55.10
33105;DHT22;19476;51.448;6.674;2023-05-06T00:06:01;18.80;55.20
33105;DHT22;19476;51.448;6.674;2023-05-06T00:08:30;18.80;55.30
33105;DHT22;19476;51.448;6.674;2023-05-06T00:10:56;18.80;55.40
33105;DHT22;19476;51.448;6.674;2023-05-06T00:13:22;18.70;55.40
33105;DHT22;19476;51.448;6.674;2023-05-06T00:15:48;18.70;55.50
33105;DHT22;19476;51.448;6.674;2023-05-06T00:18:13;18.70;55.60
33105;DHT22;19476;51.448;6.674;2023-05-06T00:20:39;18.70;55.70
33105;DHT22;19476;51.448;6.674;2023-05-06T00:23:06;18.70;55.80
33105;DHT22;19476;51.448;6.674;2023-05-06T00:25:32;18.60;55.80
33105;DHT22;19476;51.448;6.674;2023-05-06T00:27:57;18.70;55.90
33105;DHT22;19476;51.448;6.674;2023-05-06T00:30:24;18.70;56.00
33105;DHT22;19476;51.448;6.674;2023-05-06T00:32:50;18.70;56.10
33105;DHT22;19476;51.448;6.674;2023-05-06T00:35:15;18.70;56.10
33105;DHT22;19476;51.448;6.674;2023-05-06T00:37:44;18.70;56.20
33105;DHT22;19476;51.448;6.674;2023-05-06T00:40:11;18.70;56.60
33105;DHT22;19476;51.448;6.674;2023-05-06T00:42:37;18.70;56.30
33105;DHT22;19476;51.448;6.674;2023-05-06T00:45:03;18.70;56.20
33105;DHT22;19476;51.448;6.674;2023-05-06T00:47:29;18.60;56.20
33105;DHT22;19476;51.448;6.674;2023-05-06T00:49:55;18.60;56.10
33105;DHT22;19476;51.448;6.674;2023-05-06T00:52:21;18.60;56.00
33105;DHT22;19476;51.448;6.674;2023-05-06T00:54:47;18.60;56.00
33105;DHT22;19476;51.448;6.674;2023-05-06T00:57:14;18.60;56.00
33105;DHT22;19476;51.448;6.674;2023-05-06T00:59:39;18.40;55.90
33105;DHT22;19476;51.448;6.674;2023-05-06T01:02:05;18.40;56.00
33105;DHT22;19476;51.448;6.674;2023-05-06T01:04:31;18.50;56.20
33105;DHT22;19476;51.448;6.674;2023-05-06T01:09:47;18.50;56.50
33105;DHT22;19476;51.448;6.674;2023-05-06T01:15:20;18.50;56.40
33105;DHT22;19476;51.448;6.674;2023-05-06T01:17:52;18.50;56.40
33105;DHT22;19476;51.448;6.674;2023-05-06T01:20:20;18.40;55.90
33105;DHT22;19476;51.448;6.674;2023-05-06T01:22:48;18.50;56.00
33105;DHT22;19476;51.448;6.674;2023-05-06T01:25:18;18.40;55.90
33105;DHT22;19476;51.448;6.674;2023-05-06T01:27:45;18.40;56.20
33105;DHT22;19476;51.448;6.674;2023-05-06T01:30:11;18.30;55.80
33105;DHT22;19476;51.448;6.674;2023-05-06T01:35:57;18.30;56.70
33105;DHT22;19476;51.448;6.674;2023-05-06T01:38:34;18.30;57.00
33105;DHT22;19476;51.448;6.674;2023-05-06T01:41:01;18.20;56.50
33105;DHT22;19476;51.448;6.674;2023-05-06T01:43:32;18.20;56.30
33105;DHT22;19476;51.448;6.674;2023-05-06T01:45:59;18.20;56.60
33105;DHT22;19476;51.448;6.674;2023-05-06T01:48:28;18.20;56.50
33105;DHT22;19476;51.448;6.674;2023-05-06T01:50:54;18.20;56.60
33105;DHT22;19476;51.448;6.674;2023-05-06T01:53:20;18.20;56.40
33105;DHT22;19476;51.448;6.674;2023-05-06T01:55:46;18.20;56.40
33105;DHT22;19476;51.448;6.674;2023-05-06T01:58:13;18.20;56.40
33105;DHT22;19476;51.448;6.674;2023-05-06T02:00:40;18.20;56.40
33105;DHT22;19476;51.448;6.674;2023-05-06T02:03:06;18.30;56.30
33105;DHT22;19476;51.448;6.674;2023-05-06T02:05:31;18.20;56.20
33105;DHT22;19476;51.448;6.674;2023-05-06T02:07:57;18.30;56.20
33105;DHT22;19476;51.448;6.674;2023-05-06T02:10:23;18.30;56.30
33105;DHT22;19476;51.448;6.674;2023-05-06T02:12:50;18.20;56.20
33105;DHT22;19476;51.448;6.674;2023-05-06T02:15:16;18.30;56.30
33105;DHT22;19476;51.448;6.674;2023-05-06T02:17:42;18.20;56.10
33105;DHT22;19476;51.448;6.674;2023-05-06T02:20:08;18.20;56.10
33105;DHT22;19476;51.448;6.674;2023-05-06T02:22:36;18.20;56.10
33105;DHT22;19476;51.448;6.674;2023-05-06T02:25:02;18.20;56.10
33105;DHT22;19476;51.448;6.674;2023-05-06T02:27:28;18.20;56.10
33105;DHT22;19476;51.448;6.674;2023-05-06T02:29:54;18.10;56.10
33105;DHT22;19476;51.448;6.674;2023-05-06T02:32:20;18.10;56.10
33105;DHT22;19476;51.448;6.674;2023-05-06T02:34:46;18.10;56.20
33105;DHT22;19476;51.448;6.674;2023-05-06T02:37:12;18.00;56.20
33105;DHT22;19476;51.448;6.674;2023-05-06T02:39:37;18.00;56.20
33105;DHT22;19476;51.448;6.674;2023-05-06T02:42:03;18.00;56.30
33105;DHT22;19476;51.448;6.674;2023-05-06T02:44:29;18.00;56.30
33105;DHT22;19476;51.448;6.674;2023-05-06T02:46:55;18.00;56.40
33105;DHT22;19476;51.448;6.674;2023-05-06T02:49:21;17.90;56.50
33105;DHT22;19476;51.448;6.674;2023-05-06T02:51:46;17.90;56.60
33105;DHT22;19476;51.448;6.674;2023-05-06T02:54:12;17.80;56.50
33105;DHT22;19476;51.448;6.674;2023-05-06T02:56:38;17.80;56.60
33105;DHT22;19476;51.448;6.674;2023-05-06T02:59:04;17.80;56.70
33105;DHT22;19476;51.448;6.674;2023-05-06T03:01:30;17.80;56.80
33105;DHT22;19476;51.448;6.674;2023-05-06T03:03:56;17.80;56.80
33105;DHT22;19476;51.448;6.674;2023-05-06T03:06:21;17.80;56.80
33105;DHT22;19476;51.448;6.674;2023-05-06T03:08:47;17.80;56.80
33105;DHT22;19476;51.448;6.674;2023-05-06T03:11:13;17.80;56.80
33105;DHT22;19476;51.448;6.674;2023-05-06T03:13:39;17.80;56.70
33105;DHT22;19476;51.448;6.674;2023-05-06T03:16:05;17.80;56.60
33105;DHT22;19476;51.448;6.674;2023-05-06T03:18:35;17.80;56.60
33105;DHT22;19476;51.448;6.674;2023-05-06T03:21:01;17.80;56.50
33105;DHT22;19476;51.448;6.674;2023-05-06T03:23:27;17.70;56.30
33105;DHT22;19476;51.448;6.674;2023-05-06T03:25:53;17.80;56.40
33105;DHT22;19476;51.448;6.674;2023-05-06T03:28:18;17.70;56.30
33105;DHT22;19476;51.448;6.674;2023-05-06T03:30:44;17.80;56.30
33105;DHT22;19476;51.448;6.674;2023-05-06T03:33:10;17.70;56.20
33105;DHT22;19476;51.448;6.674;2023-05-06T03:35:36;17.70;56.20
33105;DHT22;19476;51.448;6.674;2023-05-06T03:38:02;17.70;56.20
33105;DHT22;19476;51.448;6.674;2023-05-06T03:40:28;17.60;56.20
33105;DHT22;19476;51.448;6.674;2023-05-06T03:42:54;17.60;56.30
33105;DHT22;19476;51.448;6.674;2023-05-06T03:45:19;17.50;56.30
33105;DHT22;19476;51.448;6.674;2023-05-06T03:47:45;17.50;56.30
33105;DHT22;19476;51.448;6.674;2023-05-06T03:50:11;17.50;56.40
33105;DHT22;19476;51.448;6.674;2023-05-06T03:52:37;17.50;56.50
33105;DHT22;19476;51.448;6.674;2023-05-06T03:55:03;17.50;56.50
33105;DHT22;19476;51.448;6.674;2023-05-06T03:57:29;17.40;56.60
33105;DHT22;19476;51.448;6.674;2023-05-06T03:59:55;17.40;56.70
33105;DHT22;19476;51.448;6.674;2023-05-06T04:02:20;17.40;56.90
33105;DHT22;19476;51.448;6.674;2023-05-06T04:04:46;17.40;57.00
33105;DHT22;19476;51.448;6.674;2023-05-06T04:07:12;17.40;57.10
33105;DHT22;19476;51.448;6.674;2023-05-06T04:09:38;17.40;57.10
33105;DHT22;19476;51.448;6.674;2023-05-06T04:12:03;17.30;57.80
33105;DHT22;19476;51.448;6.674;2023-05-06T04:14:30;17.30;57.30
33105;DHT22;19476;51.448;6.674;2023-05-06T04:16:55;17.30;57.40
33105;DHT22;19476;51.448;6.674;2023-05-06T04:19:22;17.30;57.50
33105;DHT22;19476;51.448;6.674;2023-05-06T04:21:47;17.30;57.60
33105;DHT22;19476;51.448;6.674;2023-05-06T04:24:13;17.30;57.60
33105;DHT22;19476;51.448;6.674;2023-05-06T04:26:41;17.20;57.70
33105;DHT22;19476;51.448;6.674;2023-05-06T04:29:07;17.30;57.90
33105;DHT22;19476;51.448;6.674;2023-05-06T04:31:33;17.20;57.90
33105;DHT22;19476;51.448;6.674;2023-05-06T04:34:00;17.20;58.00
33105;DHT22;19476;51.448;6.674;2023-05-06T04:36:27;17.20;58.10
33105;DHT22;19476;51.448;6.674;2023-05-06T04:38:53;17.20;58.20
33105;DHT22;19476;51.448;6.674;2023-05-06T04:41:19;17.30;58.30
33105;DHT22;19476;51.448;6.674;2023-05-06T04:43:45;17.20;58.30
33105;DHT22;19476;51.448;6.674;2023-05-06T04:46:11;17.20;58.40
33105;DHT22;19476;51.448;6.674;2023-05-06T04:48:37;17.20;58.50
33105;DHT22;19476;51.448;6.674;2023-05-06T04:51:03;17.20;58.60
33105;DHT22;19476;51.448;6.674;2023-05-06T04:53:30;17.20;58.60
33105;DHT22;19476;51.448;6.674;2023-05-06T04:55:56;17.20;58.70
33105;DHT22;19476;51.448;6.674;2023-05-06T04:58:22;17.20;58.70
33105;DHT22;19476;51.448;6.674;2023-05-06T05:00:47;17.20;58.70
33105;DHT22;19476;51.448;6.674;2023-05-06T05:03:13;17.20;58.80
33105;DHT22;19476;51.448;6.674;2023-05-06T05:05:39;17.20;58.80
33105;DHT22;19476;51.448;6.674;2023-05-06T05:08:05;17.30;58.90
33105;DHT22;19476;51.448;6.674;2023-05-06T05:10:31;17.30;59.00
33105;DHT22;19476;51.448;6.674;2023-05-06T05:12:57;17.30;59.10
33105;DHT22;19476;51.448;6.674;2023-05-06T05:15:23;17.30;59.10
33105;DHT22;19476;51.448;6.674;2023-05-06T05:17:49;17.30;59.10
33105;DHT22;19476;51.448;6.674;2023-05-06T05:20:15;17.30;59.30
33105;DHT22;19476;51.448;6.674;2023-05-06T05:22:41;17.50;59.30
33105;DHT22;19476;51.448;6.674;2023-05-06T05:25:07;17.30;59.30
33105;DHT22;19476;51.448;6.674;2023-05-06T05:27:33;17.30;59.30
33105;DHT22;19476;51.448;6.674;2023-05-06T05:29:59;17.40;59.40
33105;DHT22;19476;51.448;6.674;2023-05-06T05:32:25;17.40;59.50
33105;DHT22;19476;51.448;6.674;2023-05-06T05:34:51;17.40;59.50
33105;DHT22;19476;51.448;6.674;2023-05-06T05:37:17;17.40;59.50
33105;DHT22;19476;51.448;6.674;2023-05-06T05:39:43;17.40;59.50
33105;DHT22;19476;51.448;6.674;2023-05-06T05:42:09;17.50;59.50
33105;DHT22;19476;51.448;6.674;2023-05-06T05:44:34;17.50;59.60
33105;DHT22;19476;51.448;6.674;2023-05-06T05:47:01;17.50;59.60
33105;DHT22;19476;51.448;6.674;2023-05-06T05:49:27;17.50;59.70
33105;DHT22;19476;51.448;6.674;2023-05-06T05:51:52;17.60;59.80
33105;DHT22;19476;51.448;6.674;2023-05-06T05:54:18;17.60;59.80
33105;DHT22;19476;51.448;6.674;2023-05-06T05:56:44;17.60;59.80
33105;DHT22;19476;51.448;6.674;2023-05-06T05:59:10;17.70;59.90
33105;DHT22;19476;51.448;6.674;2023-05-06T06:01:36;17.80;60.10
33105;DHT22;19476;51.448;6.674;2023-05-06T06:04:01;17.70;60.00
33105;DHT22;19476;51.448;6.674;2023-05-06T06:06:27;17.80;60.00
33105;DHT22;19476;51.448;6.674;2023-05-06T06:08:53;17.80;60.10
33105;DHT22;19476;51.448;6.674;2023-05-06T06:11:19;17.90;60.20
33105;DHT22;19476;51.448;6.674;2023-05-06T06:13:45;18.00;60.10
33105;DHT22;19476;51.448;6.674;2023-05-06T06:16:11;18.00;60.00
33105;DHT22;19476;51.448;6.674;2023-05-06T06:18:37;18.10;59.90
33105;DHT22;19476;51.448;6.674;2023-05-06T06:21:03;18.10;59.90
33105;DHT22;19476;51.448;6.674;2023-05-06T06:23:28;18.20;60.00
33105;DHT22;19476;51.448;6.674;2023-05-06T06:25:54;18.20;60.00
33105;DHT22;19476;51.448;6.674;2023-05-06T06:28:20;18.30;59.90
33105;DHT22;19476;51.448;6.674;2023-05-06T06:30:46;18.30;59.90
33105;DHT22;19476;51.448;6.674;2023-05-06T06:33:11;18.40;59.90
33105;DHT22;19476;51.448;6.674;2023-05-06T06:35:37;18.40;59.90
33105;DHT22;19476;51.448;6.674;2023-05-06T06:38:03;18.50;59.90
33105;DHT22;19476;51.448;6.674;2023-05-06T06:40:29;18.50;59.80
33105;DHT22;19476;51.448;6.674;2023-05-06T06:42:54;18.60;59.80
33105;DHT22;19476;51.448;6.674;2023-05-06T06:45:20;18.70;59.70
33105;DHT22;19476;51.448;6.674;2023-05-06T06:47:46;18.70;59.40
33105;DHT22;19476;51.448;6.674;2023-05-06T06:50:12;18.80;59.30
33105;DHT22;19476;51.448;6.674;2023-05-06T06:52:38;18.80;59.30
33105;DHT22;19476;51.448;6.674;2023-05-06T06:55:04;18.90;59.20
33105;DHT22;19476;51.448;6.674;2023-05-06T06:57:31;18.90;59.20
33105;DHT22;19476;51.448;6.674;2023-05-06T06:59:57;19.00;59.30
33105;DHT22;19476;51.448;6.674;2023-05-06T07:02:22;19.00;59.20
33105;DHT22;19476;51.448;6.674;2023-05-06T07:04:48;19.10;59.00
33105;DHT22;19476;51.448;6.674;2023-05-06T07:07:14;19.10;58.90
33105;DHT22;19476;51.448;6.674;2023-05-06T07:09:40;19.20;58.60
33105;DHT22;19476;51.448;6.674;2023-05-06T07:12:06;19.30;58.60
33105;DHT22;19476;51.448;6.674;2023-05-06T07:14:32;19.30;58.40
33105;DHT22;19476;51.448;6.674;2023-05-06T07:16:58;19.40;58.30
33105;DHT22;19476;51.448;6.674;2023-05-06T07:19:26;19.40;58.10
33105;DHT22;19476;51.448;6.674;2023-05-06T07:21:52;19.50;58.00
33105;DHT22;19476;51.448;6.674;2023-05-06T07:24:17;19.50;57.80
33105;DHT22;19476;51.448;6.674;2023-05-06T07:26:43;19.60;57.60
33105;DHT22;19476;51.448;6.674;2023-05-06T07:29:09;19.60;57.40
33105;DHT22;19476;51.448;6.674;2023-05-06T07:31:35;19.70;57.50
33105;DHT22;19476;51.448;6.674;2023-05-06T07:34:01;19.70;57.50
33105;DHT22;19476;51.448;6.674;2023-05-06T07:36:27;19.80;57.30
33105;DHT22;19476;51.448;6.674;2023-05-06T07:38:53;19.90;57.10
33105;DHT22;19476;51.448;6.674;2023-05-06T07:41:19;19.90;57.10
33105;DHT22;19476;51.448;6.674;2023-05-06T07:43:45;20.00;57.00
33105;DHT22;19476;51.448;6.674;2023-05-06T07:46:11;20.10;56.40
33105;DHT22;19476;51.448;6.674;2023-05-06T07:48:37;20.10;56.10
33105;DHT22;19476;51.448;6.674;2023-05-06T07:51:03;20.20;56.00
33105;DHT22;19476;51.448;6.674;2023-05-06T07:53:29;20.20;55.80
33105;DHT22;19476;51.448;6.674;2023-05-06T07:55:56;20.30;55.70
33105;DHT22;19476;51.448;6.674;2023-05-06T07:58:27;20.40;55.50
33105;DHT22;19476;51.448;6.674;2023-05-06T08:00:53;20.50;55.50
33105;DHT22;19476;51.448;6.674;2023-05-06T08:03:19;20.50;55.20
33105;DHT22;19476;51.448;6.674;2023-05-06T08:05:44;20.60;54.90
33105;DHT22;19476;51.448;6.674;2023-05-06T08:08:10;20.60;54.90
33105;DHT22;19476;51.448;6.674;2023-05-06T08:10:36;20.70;54.80
33105;DHT22;19476;51.448;6.674;2023-05-06T08:13:02;20.70;54.60
33105;DHT22;19476;51.448;6.674;2023-05-06T08:15:27;20.80;54.30
33105;DHT22;19476;51.448;6.674;2023-05-06T08:17:53;20.90;54.20
33105;DHT22;19476;51.448;6.674;2023-05-06T08:20:21;20.90;53.90
33105;DHT22;19476;51.448;6.674;2023-05-06T08:22:46;21.00;53.80
33105;DHT22;19476;51.448;6.674;2023-05-06T08:25:12;21.00;53.90
33105;DHT22;19476;51.448;6.674;2023-05-06T08:27:38;21.10;53.90
33105;DHT22;19476;51.448;6.674;2023-05-06T08:30:05;21.10;53.60
33105;DHT22;19476;51.448;6.674;2023-05-06T08:32:31;21.20;53.40
33105;DHT22;19476;51.448;6.674;2023-05-06T08:34:57;21.20;53.20
33105;DHT22;19476;51.448;6.674;2023-05-06T08:37:24;21.30;52.30
33105;DHT22;19476;51.448;6.674;2023-05-06T08:39:50;21.30;52.10
33105;DHT22;19476;51.448;6.674;2023-05-06T08:42:16;21.40;52.00
33105;DHT22;19476;51.448;6.674;2023-05-06T08:44:42;21.40;51.50
33105;DHT22;19476;51.448;6.674;2023-05-06T08:47:09;21.50;51.40
33105;DHT22;19476;51.448;6.674;2023-05-06T08:49:35;21.50;51.30
33105;DHT22;19476;51.448;6.674;2023-05-06T08:52:04;21.60;51.50
33105;DHT22;19476;51.448;6.674;2023-05-06T08:54:33;21.60;51.50
33105;DHT22;19476;51.448;6.674;2023-05-06T08:57:05;21.70;51.60
33105;DHT22;19476;51.448;6.674;2023-05-06T08:59:34;21.80;51.50
33105;DHT22;19476;51.448;6.674;2023-05-06T09:02:01;21.80;51.50
33105;DHT22;19476;51.448;6.674;2023-05-06T09:04:27;21.90;51.30
33105;DHT22;19476;51.448;6.674;2023-05-06T09:06:52;21.90;51.30
33105;DHT22;19476;51.448;6.674;2023-05-06T09:09:18;22.00;51.30
33105;DHT22;19476;51.448;6.674;2023-05-06T09:11:44;22.10;50.80
33105;DHT22;19476;51.448;6.674;2023-05-06T09:14:15;22.20;50.70
33105;DHT22;19476;51.448;6.674;2023-05-06T09:16:44;22.20;50.20
33105;DHT22;19476;51.448;6.674;2023-05-06T09:19:10;22.20;50.00
33105;DHT22;19476;51.448;6.674;2023-05-06T09:21:38;22.30;50.10
33105;DHT22;19476;51.448;6.674;2023-05-06T09:24:06;22.40;49.70
33105;DHT22;19476;51.448;6.674;2023-05-06T09:26:33;22.40;49.70
33105;DHT22;19476;51.448;6.674;2023-05-06T09:29:00;22.50;49.50
33105;DHT22;19476;51.448;6.674;2023-05-06T09:31:27;22.50;49.70
33105;DHT22;19476;51.448;6.674;2023-05-06T09:33:55;22.60;49.70
33105;DHT22;19476;51.448;6.674;2023-05-06T09:36:21;22.70;49.60
33105;DHT22;19476;51.448;6.674;2023-05-06T09:38:48;22.80;49.40
33105;DHT22;19476;51.448;6.674;2023-05-06T09:41:17;22.90;49.00
33105;DHT22;19476;51.448;6.674;2023-05-06T09:43:43;22.90;49.00
33105;DHT22;19476;51.448;6.674;2023-05-06T09:46:11;22.90;48.80
33105;DHT22;19476;51.448;6.674;2023-05-06T09:48:39;23.00;48.40
33105;DHT22;19476;51.448;6.674;2023-05-06T09:51:06;23.00;48.50
33105;DHT22;19476;51.448;6.674;2023-05-06T09:53:35;23.10;48.00
33105;DHT22;19476;51.448;6.674;2023-05-06T09:56:05;23.20;47.50
33105;DHT22;19476;51.448;6.674;2023-05-06T09:58:32;23.20;47.90
33105;DHT22;19476;51.448;6.674;2023-05-06T10:00:59;23.30;47.80
33105;DHT22;19476;51.448;6.674;2023-05-06T10:03:25;23.40;47.80
33105;DHT22;19476;51.448;6.674;2023-05-06T10:05:55;23.50;47.80
33105;DHT22;19476;51.448;6.674;2023-05-06T10:08:24;23.50;46.90
33105;DHT22;19476;51.448;6.674;2023-05-06T10:10:50;23.60;47.00
33105;DHT22;19476;51.448;6.674;2023-05-06T10:13:17;23.80;47.00
33105;DHT22;19476;51.448;6.674;2023-05-06T10:15:45;23.80;46.60
33105;DHT22;19476;51.448;6.674;2023-05-06T10:18:16;23.90;46.10
33105;DHT22;19476;51.448;6.674;2023-05-06T10:20:43;24.00;45.80
33105;DHT22;19476;51.448;6.674;2023-05-06T10:26:03;24.10;44.50
33105;DHT22;19476;51.448;6.674;2023-05-06T10:28:30;24.20;44.80
33105;DHT22;19476;51.448;6.674;2023-05-06T10:30:58;24.30;44.70
33105;DHT22;19476;51.448;6.674;2023-05-06T10:33:25;24.40;43.90
33105;DHT22;19476;51.448;6.674;2023-05-06T10:35:56;24.40;43.70
33105;DHT22;19476;51.448;6.674;2023-05-06T10:38:39;24.50;43.00
33105;DHT22;19476;51.448;6.674;2023-05-06T10:41:07;24.60;43.40
33105;DHT22;19476;51.448;6.674;2023-05-06T10:43:38;24.70;43.20
33105;DHT22;19476;51.448;6.674;2023-05-06T10:46:15;24.70;42.90
33105;DHT22;19476;51.448;6.674;2023-05-06T10:54:06;24.90;42.80
33105;DHT22;19476;51.448;6.674;2023-05-06T10:57:06;25.00;42.30
33105;DHT22;19476;51.448;6.674;2023-05-06T10:59:27;25.10;42.40
33105;DHT22;19476;51.448;6.674;2023-05-06T11:02:06;25.20;42.40
33105;DHT22;19476;51.448;6.674;2023-05-06T11:04:33;25.20;41.80
33105;DHT22;19476;51.448;6.674;2023-05-06T11:07:20;25.30;42.00
33105;DHT22;19476;51.448;6.674;2023-05-06T11:09:57;25.50;40.60
33105;DHT22;19476;51.448;6.674;2023-05-06T11:12:50;25.60;40.00
33105;DHT22;19476;51.448;6.674;2023-05-06T11:26:08;26.00;38.00
33105;DHT22;19476;51.448;6.674;2023-05-06T11:28:34;26.10;37.90
33105;DHT22;19476;51.448;6.674;2023-05-06T11:31:00;26.10;37.90
33105;DHT22;19476;51.448;6.674;2023-05-06T11:33:31;26.10;38.30
33105;DHT22;19476;51.448;6.674;2023-05-06T11:36:02;26.20;38.30
33105;DHT22;19476;51.448;6.674;2023-05-06T11:38:45;26.20;39.00
33105;DHT22;19476;51.448;6.674;2023-05-06T11:41:12;26.30;38.80
33105;DHT22;19476;51.448;6.674;2023-05-06T11:43:39;26.40;39.30
33105;DHT22;19476;51.448;6.674;2023-05-06T11:46:10;26.50;39.00
33105;DHT22;19476;51.448;6.674;2023-05-06T11:48:35;26.50;39.40
33105;DHT22;19476;51.448;6.674;2023-05-06T11:51:01;26.60;38.60
33105;DHT22;19476;51.448;6.674;2023-05-06T11:53:29;26.70;38.80
33105;DHT22;19476;51.448;6.674;2023-05-06T11:55:54;26.70;38.60
33105;DHT22;19476;51.448;6.674;2023-05-06T11:58:24;26.80;38.40
33105;DHT22;19476;51.448;6.674;2023-05-06T12:00:56;26.80;38.20
33105;DHT22;19476;51.448;6.674;2023-05-06T12:03:24;26.90;38.00
33105;DHT22;19476;51.448;6.674;2023-05-06T12:05:51;26.90;38.30
33105;DHT22;19476;51.448;6.674;2023-05-06T12:08:30;26.90;38.00
33105;DHT22;19476;51.448;6.674;2023-05-06T12:11:02;27.00;37.40
33105;DHT22;19476;51.448;6.674;2023-05-06T12:13:29;27.10;37.80
33105;DHT22;19476;51.448;6.674;2023-05-06T12:15:58;27.10;38.10
33105;DHT22;19476;51.448;6.674;2023-05-06T12:18:24;27.10;36.90
33105;DHT22;19476;51.448;6.674;2023-05-06T12:20:57;27.10;37.30
33105;DHT22;19476;51.448;6.674;2023-05-06T12:23:25;27.00;36.60
33105;DHT22;19476;51.448;6.674;2023-05-06T12:26:03;27.00;37.10
33105;DHT22;19476;51.448;6.674;2023-05-06T12:28:31;27.00;36.50
33105;DHT22;19476;51.448;6.674;2023-05-06T12:30:57;27.00;37.10
33105;DHT22;19476;51.448;6.674;2023-05-06T12:33:23;27.00;37.30
33105;DHT22;19476;51.448;6.674;2023-05-06T12:35:49;27.00;37.40
33105;DHT22;19476;51.448;6.674;2023-05-06T12:38:21;27.10;37.00
33105;DHT22;19476;51.448;6.674;2023-05-06T12:40:54;27.10;36.70
33105;DHT22;19476;51.448;6.674;2023-05-06T12:43:27;27.20;36.30
33105;DHT22;19476;51.448;6.674;2023-05-06T12:46:05;27.30;36.40
33105;DHT22;19476;51.448;6.674;2023-05-06T12:48:31;27.40;35.90
33105;DHT22;19476;51.448;6.674;2023-05-06T12:50:57;27.50;37.00
33105;DHT22;19476;51.448;6.674;2023-05-06T12:53:33;27.60;36.90
33105;DHT22;19476;51.448;6.674;2023-05-06T12:55:59;27.70;36.00
33105;DHT22;19476;51.448;6.674;2023-05-06T12:58:25;27.70;35.90
33105;DHT22;19476;51.448;6.674;2023-05-06T13:00:51;27.80;35.90
33105;DHT22;19476;51.448;6.674;2023-05-06T13:03:17;27.90;35.90
33105;DHT22;19476;51.448;6.674;2023-05-06T13:05:45;28.00;35.80
33105;DHT22;19476;51.448;6.674;2023-05-06T13:08:14;28.20;35.70
33105;DHT22;19476;51.448;6.674;2023-05-06T13:10:40;28.30;35.50
33105;DHT22;19476;51.448;6.674;2023-05-06T13:13:05;28.40;35.50
33105;DHT22;19476;51.448;6.674;2023-05-06T13:15:32;28.50;35.20
33105;DHT22;19476;51.448;6.674;2023-05-06T13:17:59;28.60;34.90
33105;DHT22;19476;51.448;6.674;2023-05-06T13:20:25;28.60;34.70
33105;DHT22;19476;51.448;6.674;2023-05-06T13:22:51;28.60;34.60
33105;DHT22;19476;51.448;6.674;2023-05-06T13:25:17;28.60;34.60
33105;DHT22;19476;51.448;6.674;2023-05-06T13:27:43;28.70;34.90
33105;DHT22;19476;51.448;6.674;2023-05-06T13:30:09;28.80;35.00
33105;DHT22;19476;51.448;6.674;2023-05-06T13:32:35;28.80;34.60
33105;DHT22;19476;51.448;6.674;2023-05-06T13:35:00;28.90;34.60
33105;DHT22;19476;51.448;6.674;2023-05-06T13:37:26;29.10;34.70
33105;DHT22;19476;51.448;6.674;2023-05-06T13:39:52;29.10;33.70
33105;DHT22;19476;51.448;6.674;2023-05-06T13:42:17;29.20;33.50
33105;DHT22;19476;51.448;6.674;2023-05-06T13:44:43;29.30;33.50
33105;DHT22;19476;51.448;6.674;2023-05-06T13:47:09;29.40;33.30
33105;DHT22;19476;51.448;6.674;2023-05-06T13:49:34;29.50;33.30
33105;DHT22;19476;51.448;6.674;2023-05-06T13:52:01;29.50;33.20
33105;DHT22;19476;51.448;6.674;2023-05-06T13:54:27;29.60;33.20
33105;DHT22;19476;51.448;6.674;2023-05-06T13:56:52;29.70;32.90
33105;DHT22;19476;51.448;6.674;2023-05-06T13:59:18;29.60;32.90
33105;DHT22;19476;51.448;6.674;2023-05-06T14:01:44;29.70;33.00
33105;DHT22;19476;51.448;6.674;2023-05-06T14:04:09;29.70;33.00
33105;DHT22;19476;51.448;6.674;2023-05-06T14:06:35;29.70;32.70
33105;DHT22;19476;51.448;6.674;2023-05-06T14:09:01;29.70;32.70
33105;DHT22;19476;51.448;6.674;2023-05-06T14:11:27;29.70;32.50
33105;DHT22;19476;51.448;6.674;2023-05-06T14:13:54;29.70;32.50
33105;DHT22;19476;51.448;6.674;2023-05-06T14:16:21;29.60;32.30
33105;DHT22;19476;51.448;6.674;2023-05-06T14:18:47;29.60;32.10
33105;DHT22;19476;51.448;6.674;2023-05-06T14:21:13;29.60;32.00
33105;DHT22;19476;51.448;6.674;2023-05-06T14:23:39;29.50;31.90
33105;DHT22;19476;51.448;6.674;2023-05-06T14:26:04;29.40;32.00
33105;DHT22;19476;51.448;6.674;2023-05-06T14:28:30;29.40;32.10
33105;DHT22;19476;51.448;6.674;2023-05-06T14:30:56;29.30;31.80
33105;DHT22;19476;51.448;6.674;2023-05-06T14:33:22;29.30;31.90
33105;DHT22;19476;51.448;6.674;2023-05-06T14:35:48;29.20;31.70
33105;DHT22;19476;51.448;6.674;2023-05-06T14:38:16;29.20;32.00
33105;DHT22;19476;51.448;6.674;2023-05-06T14:40:42;29.20;32.00
33105;DHT22;19476;51.448;6.674;2023-05-06T14:43:07;29.10;32.10
33105;DHT22;19476;51.448;6.674;2023-05-06T14:45:33;29.00;32.10
33105;DHT22;19476;51.448;6.674;2023-05-06T14:47:59;29.00;32.00
33105;DHT22;19476;51.448;6.674;2023-05-06T14:50:25;28.90;32.10
33105;DHT22;19476;51.448;6.674;2023-05-06T14:52:51;28.80;31.90
33105;DHT22;19476;51.448;6.674;2023-05-06T14:55:19;28.70;31.80
33105;DHT22;19476;51.448;6.674;2023-05-06T14:57:45;28.60;31.90
33105;DHT22;19476;51.448;6.674;2023-05-06T15:00:11;28.50;32.00
33105;DHT22;19476;51.448;6.674;2023-05-06T15:02:39;28.40;32.10
33105;DHT22;19476;51.448;6.674;2023-05-06T15:05:09;28.30;32.10
33105;DHT22;19476;51.448;6.674;2023-05-06T15:07:36;28.20;32.30
33105;DHT22;19476;51.448;6.674;2023-05-06T15:10:02;28.10;32.50
33105;DHT22;19476;51.448;6.674;2023-05-06T15:12:28;28.00;32.60
33105;DHT22;19476;51.448;6.674;2023-05-06T15:14:54;27.90;32.90
33105;DHT22;19476;51.448;6.674;2023-05-06T15:17:20;27.80;33.10
33105;DHT22;19476;51.448;6.674;2023-05-06T15:19:46;27.70;33.30
33105;DHT22;19476;51.448;6.674;2023-05-06T15:22:12;27.60;33.60
33105;DHT22;19476;51.448;6.674;2023-05-06T15:24:38;27.50;33.80
33105;DHT22;19476;51.448;6.674;2023-05-06T15:27:04;27.40;35.70
33105;DHT22;19476;51.448;6.674;2023-05-06T15:29:29;27.20;36.90
33105;DHT22;19476;51.448;6.674;2023-05-06T15:31:56;27.10;38.40
33105;DHT22;19476;51.448;6.674;2023-05-06T15:34:21;26.90;39.50
33105;DHT22;19476;51.448;6.674;2023-05-06T15:36:50;26.70;40.30
33105;DHT22;19476;51.448;6.674;2023-05-06T15:39:16;26.40;41.50
33105;DHT22;19476;51.448;6.674;2023-05-06T15:41:42;26.20;41.90
33105;DHT22;19476;51.448;6.674;2023-05-06T15:44:08;25.90;42.20
33105;DHT22;19476;51.448;6.674;2023-05-06T15:46:35;25.70;42.70
33105;DHT22;19476;51.448;6.674;2023-05-06T15:49:01;25.40;44.00
33105;DHT22;19476;51.448;6.674;2023-05-06T15:51:27;25.20;44.10
33105;DHT22;19476;51.448;6.674;2023-05-06T15:53:53;25.00;44.90
33105;DHT22;19476;51.448;6.674;2023-05-06T15:56:18;24.80;45.00